Time;durP1;ratioP1;P1;durP2;ratioP2;P2;SDS_P1;SDS_P2;PMS_P1;PMS_P2;Temp;Humidity;BMP_temperature;BMP_pressure;BME280_temperature;BME280_humidity;BME280_pressure;Samples;Min_cycle;Max_cycle;Signal;HPM_P1;HPM_P2
2022/11/12 00:00:15;;;;;;;;;;;19.80;46.10;;;;;;4971244;28;19926;-68
2022/11/12 00:02:42;;;;;;;;;;;19.80;46.10;;;;;;4975627;28;19937;-69
2022/11/12 00:05:09;;;;;;;;;;;19.80;46.10;;;;;;4976235;28;19933;-67
2022/11/12 00:07:37;;;;;;;;;;;19.80;46.10;;;;;;4974406;28;19993;-68
2022/11/12 00:10:04;;;;;;;;;;;19.80;46.10;;;;;;4978912;28;19977;-67
2022/11/12 00:12:31;;;;;;;;;;;19.80;46.00;;;;;;4986445;28;19934;-68
2022/11/12 00:14:58;;;;;;;;;;;19.80;46.10;;;;;;4982500;28;19926;-68
2022/11/12 00:17:24;;;;;;;;;;;19.70;45.90;;;;;;4985418;28;19933;-68
2022/11/12 00:19:52;;;;;;;;;;;19.80;46.00;;;;;;4980720;28;19957;-67
2022/11/12 00:22:19;;;;;;;;;;;19.70;45.90;;;;;;4985942;28;19989;-69
2022/11/12 00:24:47;;;;;;;;;;;19.80;46.00;;;;;;4990377;28;19930;-68
2022/11/12 00:27:14;;;;;;;;;;;19.70;45.80;;;;;;4994097;28;19926;-68
2022/11/12 00:29:41;;;;;;;;;;;19.80;45.90;;;;;;4974586;28;19922;-67
2022/11/12 00:32:08;;;;;;;;;;;19.70;45.80;;;;;;4970481;28;20020;-67
2022/11/12 00:34:35;;;;;;;;;;;19.80;45.90;;;;;;4964493;28;20399;-67
2022/11/12 00:37:02;;;;;;;;;;;19.70;45.80;;;;;;4982715;28;19933;-68
2022/11/12 00:39:28;;;;;;;;;;;19.70;45.80;;;;;;4973941;28;19926;-67
2022/11/12 00:41:56;;;;;;;;;;;19.70;45.80;;;;;;4979450;28;19933;-67
2022/11/12 00:44:23;;;;;;;;;;;19.70;45.80;;;;;;4972645;28;19934;-68
2022/11/12 00:46:50;;;;;;;;;;;19.70;45.80;;;;;;4971087;28;19929;-68
2022/11/12 00:49:17;;;;;;;;;;;19.70;45.80;;;;;;4968500;28;19965;-68
2022/11/12 00:51:43;;;;;;;;;;;19.70;45.80;;;;;;4991175;28;19930;-68
2022/11/12 00:54:10;;;;;;;;;;;19.70;45.80;;;;;;4986487;28;19929;-67
2022/11/12 00:56:37;;;;;;;;;;;19.70;45.80;;;;;;4974296;28;20011;-68
2022/11/12 00:59:05;;;;;;;;;;;19.70;45.80;;;;;;4988643;28;19925;-68
2022/11/12 01:01:32;;;;;;;;;;;19.70;45.70;;;;;;4992519;28;19925;-67
2022/11/12 01:03:59;;;;;;;;;;;19.70;45.70;;;;;;4991639;28;20414;-68
2022/11/12 01:06:25;;;;;;;;;;;19.70;45.70;;;;;;4994171;28;19926;-68
2022/11/12 01:08:53;;;;;;;;;;;19.70;45.70;;;;;;4978222;28;19925;-68
2022/11/12 01:11:20;;;;;;;;;;;19.70;45.70;;;;;;4977971;28;19930;-68
2022/11/12 01:13:47;;;;;;;;;;;19.70;45.70;;;;;;4994745;28;19937;-69
2022/11/12 01:16:16;;;;;;;;;;;19.70;45.70;;;;;;4990527;28;19980;-67
2022/11/12 01:18:43;;;;;;;;;;;19.70;45.70;;;;;;4994439;28;19925;-67
2022/11/12 01:21:09;;;;;;;;;;;19.70;45.70;;;;;;5000009;28;19932;-67
2022/11/12 01:23:38;;;;;;;;;;;19.70;45.70;;;;;;4993675;28;19933;-68
2022/11/12 01:26:04;;;;;;;;;;;19.70;45.70;;;;;;4995525;28;19931;-67
2022/11/12 01:28:31;;;;;;;;;;;19.70;45.70;;;;;;4995128;28;20037;-67
2022/11/12 01:30:58;;;;;;;;;;;19.70;45.70;;;;;;4984203;28;19991;-68
2022/11/12 01:33:26;;;;;;;;;;;19.70;45.80;;;;;;4978231;28;19930;-68
2022/11/12 01:35:53;;;;;;;;;;;19.70;45.70;;;;;;4993014;28;19934;-68
2022/11/12 01:38:20;;;;;;;;;;;19.70;45.70;;;;;;4979469;28;19972;-67
2022/11/12 01:40:46;;;;;;;;;;;19.70;45.70;;;;;;4962678;28;19935;-68
2022/11/12 01:43:13;;;;;;;;;;;19.70;45.70;;;;;;4966373;28;19926;-67
2022/11/12 01:45:40;;;;;;;;;;;19.70;45.70;;;;;;4992782;28;19957;-67
2022/11/12 01:48:07;;;;;;;;;;;19.70;45.70;;;;;;4993297;28;19932;-66
2022/11/12 01:50:36;;;;;;;;;;;19.70;45.70;;;;;;4986736;28;19926;-67
2022/11/12 01:53:04;;;;;;;;;;;19.70;45.70;;;;;;4989520;28;19929;-67
2022/11/12 01:55:31;;;;;;;;;;;19.60;45.60;;;;;;4982069;28;19957;-67
2022/11/12 01:57:59;;;;;;;;;;;19.60;45.60;;;;;;4977356;28;19936;-68
2022/11/12 02:00:26;;;;;;;;;;;19.60;45.60;;;;;;4972608;28;19930;-68
2022/11/12 02:02:53;;;;;;;;;;;19.70;45.70;;;;;;4995498;28;19925;-68
2022/11/12 02:05:19;;;;;;;;;;;19.60;45.60;;;;;;4981177;28;19926;-69
2022/11/12 02:07:48;;;;;;;;;;;19.60;45.60;;;;;;5002452;28;19980;-67
2022/11/12 02:10:14;;;;;;;;;;;19.60;45.60;;;;;;4979893;28;19933;-68
2022/11/12 02:15:25;;;;;;;;;;;19.60;45.60;;;;;;4976774;28;19933;-69
2022/11/12 02:17:53;;;;;;;;;;;19.60;45.60;;;;;;4976593;28;19933;-67
2022/11/12 02:20:19;;;;;;;;;;;19.60;45.60;;;;;;4975970;28;20340;-67
2022/11/12 02:22:50;;;;;;;;;;;19.60;45.60;;;;;;4992205;28;19925;-68
2022/11/12 02:25:17;;;;;;;;;;;19.60;45.60;;;;;;4992520;28;19925;-67
2022/11/12 02:27:44;;;;;;;;;;;19.60;45.60;;;;;;4979942;28;19925;-69
2022/11/12 02:30:12;;;;;;;;;;;19.60;45.60;;;;;;4974825;28;19934;-69
2022/11/12 02:32:38;;;;;;;;;;;19.60;45.60;;;;;;4987098;28;19980;-68
2022/11/12 02:35:05;;;;;;;;;;;19.60;45.60;;;;;;4988037;28;19933;-68
2022/11/12 02:37:32;;;;;;;;;;;19.60;45.60;;;;;;4995006;28;19925;-67
2022/11/12 02:40:00;;;;;;;;;;;19.60;45.60;;;;;;4991773;28;19930;-67
2022/11/12 02:42:27;;;;;;;;;;;19.60;45.60;;;;;;4991424;28;19926;-67
2022/11/12 02:44:54;;;;;;;;;;;19.60;45.60;;;;;;4965712;28;19984;-67
2022/11/12 02:47:21;;;;;;;;;;;19.60;45.60;;;;;;4979696;28;19929;-68
2022/11/12 02:49:47;;;;;;;;;;;19.60;45.60;;;;;;4979088;28;19926;-68
2022/11/12 02:52:14;;;;;;;;;;;19.60;45.50;;;;;;4977927;28;20415;-68
2022/11/12 02:54:41;;;;;;;;;;;19.60;45.60;;;;;;5003828;28;19933;-68
2022/11/12 02:57:09;;;;;;;;;;;19.60;45.60;;;;;;4990777;28;20376;-68
2022/11/12 02:59:36;;;;;;;;;;;19.60;45.60;;;;;;4986680;28;20007;-67
2022/11/12 03:02:03;;;;;;;;;;;19.60;45.60;;;;;;4985658;28;19933;-67
2022/11/12 03:04:29;;;;;;;;;;;19.60;45.50;;;;;;4986149;28;19936;-68
2022/11/12 03:06:56;;;;;;;;;;;19.60;45.50;;;;;;4970802;28;19930;-67
2022/11/12 03:09:23;;;;;;;;;;;19.60;45.50;;;;;;4969553;28;19930;-67
2022/11/12 03:11:50;;;;;;;;;;;19.60;45.50;;;;;;4991915;28;19936;-68
2022/11/12 03:14:43;;;;;;;;;;;19.60;45.40;;;;;;5087574;28;19916;-67
2022/11/12 03:17:10;;;;;;;;;;;19.60;45.50;;;;;;5081893;28;19932;-68
2022/11/12 03:19:37;;;;;;;;;;;19.60;45.40;;;;;;5082810;28;19935;-68
2022/11/12 03:22:04;;;;;;;;;;;19.60;45.40;;;;;;5088352;28;19947;-67
2022/11/12 03:24:30;;;;;;;;;;;19.60;45.40;;;;;;5087377;28;19947;-66
2022/11/12 03:26:58;;;;;;;;;;;19.60;45.40;;;;;;5081140;28;19934;-68
2022/11/12 03:29:25;;;;;;;;;;;19.60;45.30;;;;;;5087809;28;20015;-66
2022/11/12 03:31:53;;;;;;;;;;;19.60;45.30;;;;;;5088077;28;20011;-67
2022/11/12 03:34:20;;;;;;;;;;;19.60;45.30;;;;;;5087168;28;19932;-67
2022/11/12 03:36:47;;;;;;;;;;;19.60;45.30;;;;;;5086676;28;20315;-67
2022/11/12 03:39:14;;;;;;;;;;;19.60;45.20;;;;;;5088807;28;19997;-67
2022/11/12 03:41:40;;;;;;;;;;;19.60;45.20;;;;;;5083781;28;19929;-67
2022/11/12 03:44:07;;;;;;;;;;;19.60;45.20;;;;;;5069509;28;19970;-68
2022/11/12 03:46:34;;;;;;;;;;;19.60;45.20;;;;;;5080699;28;19929;-67
2022/11/12 03:49:02;;;;;;;;;;;19.60;45.10;;;;;;5086494;28;20156;-68
2022/11/12 03:51:29;;;;;;;;;;;19.60;45.10;;;;;;5084538;28;19946;-67
2022/11/12 03:53:56;;;;;;;;;;;19.60;45.10;;;;;;5086384;28;19932;-68
2022/11/12 03:56:22;;;;;;;;;;;19.60;45.10;;;;;;5072417;28;19924;-66
2022/11/12 03:58:49;;;;;;;;;;;19.60;45.10;;;;;;5076802;28;19924;-66
2022/11/12 04:01:16;;;;;;;;;;;19.60;45.10;;;;;;5081545;28;19928;-67
2022/11/12 04:03:43;;;;;;;;;;;19.60;45.00;;;;;;5087178;28;19928;-66
2022/11/12 04:08:55;;;;;;;;;;;19.60;45.00;;;;;;5085938;28;19928;-66
2022/11/12 04:11:21;;;;;;;;;;;19.50;44.90;;;;;;5083732;28;19931;-67
2022/11/12 04:13:48;;;;;;;;;;;19.50;44.80;;;;;;5086613;28;19930;-67
2022/11/12 04:22:00;;;;;;;;;;;19.50;44.80;;;;;;5019160;28;20295;-66
2022/11/12 04:27:13;;;;;;;;;;;19.50;44.80;;;;;;5073544;28;19935;-66
2022/11/12 04:32:24;;;;;;;;;;;19.50;44.80;;;;;;5073471;28;19925;-67
2022/11/12 04:34:51;;;;;;;;;;;19.50;44.70;;;;;;5073106;28;19974;-67
2022/11/12 04:37:19;;;;;;;;;;;19.50;45.30;;;;;;5062347;28;19924;-67
2022/11/12 04:39:46;;;;;;;;;;;19.50;44.70;;;;;;5071520;28;19970;-67
2022/11/12 04:45:00;;;;;;;;;;;19.50;44.70;;;;;;5100869;27;20444;-67
2022/11/12 04:47:27;;;;;;;;;;;19.50;44.70;;;;;;5072013;28;19939;-66
2022/11/12 04:49:54;;;;;;;;;;;19.50;44.70;;;;;;5071399;28;19986;-67
2022/11/12 04:52:22;;;;;;;;;;;19.50;44.60;;;;;;5073965;28;19935;-67
2022/11/12 04:54:49;;;;;;;;;;;19.50;44.60;;;;;;5071911;28;19924;-67
2022/11/12 04:57:16;;;;;;;;;;;19.50;44.60;;;;;;5072143;28;19927;-67
2022/11/12 04:59:42;;;;;;;;;;;19.50;44.50;;;;;;5072550;28;19925;-67
2022/11/12 05:02:09;;;;;;;;;;;19.50;44.50;;;;;;5072729;28;19935;-66
2022/11/12 05:04:36;;;;;;;;;;;19.50;44.50;;;;;;5070177;28;19924;-66
2022/11/12 05:07:02;;;;;;;;;;;19.50;44.50;;;;;;5072750;28;19928;-69
2022/11/12 05:09:31;;;;;;;;;;;19.50;44.50;;;;;;5073761;28;19928;-66
2022/11/12 05:11:57;;;;;;;;;;;19.50;44.50;;;;;;5072627;28;19924;-67
2022/11/12 05:14:24;;;;;;;;;;;19.50;44.40;;;;;;5070539;28;20043;-65
2022/11/12 05:16:51;;;;;;;;;;;19.50;44.40;;;;;;5069893;28;19936;-66
2022/11/12 05:19:18;;;;;;;;;;;19.50;44.40;;;;;;5067698;28;19928;-68
2022/11/12 05:24:29;;;;;;;;;;;19.40;44.20;;;;;;5071250;28;19929;-67
2022/11/12 05:26:57;;;;;;;;;;;19.50;44.30;;;;;;5072003;28;20016;-67
2022/11/12 05:29:24;;;;;;;;;;;19.40;44.20;;;;;;5073132;28;19932;-67
2022/11/12 05:31:51;;;;;;;;;;;19.40;44.20;;;;;;5069925;28;19928;-68
2022/11/12 05:34:18;;;;;;;;;;;19.40;44.10;;;;;;5069968;28;19931;-66
2022/11/12 05:36:45;;;;;;;;;;;19.40;44.10;;;;;;5072429;28;19928;-66
2022/11/12 05:39:11;;;;;;;;;;;19.40;44.10;;;;;;5068375;28;20347;-67
2022/11/12 05:41:38;;;;;;;;;;;19.40;44.10;;;;;;5068487;28;19930;-66
2022/11/12 05:44:07;;;;;;;;;;;19.40;44.70;;;;;;5070712;28;19927;-67
2022/11/12 05:46:34;;;;;;;;;;;19.40;44.10;;;;;;5104247;28;19928;-66
2022/11/12 05:49:00;;;;;;;;;;;19.40;44.10;;;;;;5062827;28;19929;-67
2022/11/12 05:51:27;;;;;;;;;;;19.40;44.10;;;;;;5080795;28;19994;-65
2022/11/12 05:53:54;;;;;;;;;;;19.40;44.10;;;;;;5072373;28;19928;-65
2022/11/12 05:56:21;;;;;;;;;;;19.40;44.10;;;;;;5066817;28;19932;-67
2022/11/12 05:58:48;;;;;;;;;;;19.40;44.00;;;;;;5069010;28;19928;-67
2022/11/12 06:01:16;;;;;;;;;;;19.40;44.10;;;;;;5081903;28;19960;-67
2022/11/12 06:03:43;;;;;;;;;;;19.40;44.00;;;;;;5101119;28;19977;-66
2022/11/12 06:06:09;;;;;;;;;;;19.40;44.10;;;;;;5084048;28;19929;-66
2022/11/12 06:08:36;;;;;;;;;;;19.40;44.10;;;;;;5082052;28;19939;-66
2022/11/12 06:11:03;;;;;;;;;;;19.40;44.70;;;;;;5086388;28;19924;-66
2022/11/12 06:13:30;;;;;;;;;;;19.40;44.10;;;;;;5070060;28;19924;-66
2022/11/12 06:15:57;;;;;;;;;;;19.40;44.10;;;;;;5066983;28;19954;-66
2022/11/12 06:18:25;;;;;;;;;;;19.40;44.00;;;;;;5069478;28;19978;-67
2022/11/12 06:23:32;;;;;;;;;;;19.40;44.00;;;;;;5098661;28;19990;-66
2022/11/12 06:25:59;;;;;;;;;;;19.40;44.00;;;;;;5069761;28;19928;-66
2022/11/12 06:28:26;;;;;;;;;;;19.40;43.90;;;;;;5069153;28;19993;-67
2022/11/12 06:30:53;;;;;;;;;;;19.40;44.40;;;;;;5070635;28;19958;-67
2022/11/12 06:33:19;;;;;;;;;;;19.40;43.80;;;;;;5067942;28;19932;-67
2022/11/12 06:35:48;;;;;;;;;;;19.40;43.70;;;;;;5069850;28;19924;-67
2022/11/12 06:38:14;;;;;;;;;;;19.40;43.70;;;;;;5067756;28;19928;-66
2022/11/12 06:40:41;;;;;;;;;;;19.40;43.60;;;;;;5069975;28;19932;-67
2022/11/12 06:43:08;;;;;;;;;;;19.40;43.60;;;;;;5083480;28;19931;-68
2022/11/12 06:45:36;;;;;;;;;;;19.40;43.60;;;;;;5067647;28;19925;-66
2022/11/12 06:48:03;;;;;;;;;;;19.30;43.50;;;;;;5079696;28;20283;-66
2022/11/12 06:50:30;;;;;;;;;;;19.30;43.50;;;;;;5068074;28;19974;-65
2022/11/12 06:53:01;;;;;;;;;;;19.30;43.50;;;;;;5069290;28;20313;-66
2022/11/12 06:55:28;;;;;;;;;;;19.30;43.50;;;;;;5067342;28;19970;-66
2022/11/12 06:57:55;;;;;;;;;;;19.30;43.50;;;;;;5085571;28;19931;-66
2022/11/12 07:00:22;;;;;;;;;;;19.30;43.40;;;;;;5061969;28;19924;-66
2022/11/12 07:02:48;;;;;;;;;;;19.30;43.40;;;;;;5070921;28;19970;-66
2022/11/12 07:05:15;;;;;;;;;;;19.30;43.40;;;;;;5067161;28;19982;-67
2022/11/12 07:07:42;;;;;;;;;;;19.30;43.30;;;;;;5069077;28;19981;-68
2022/11/12 07:10:10;;;;;;;;;;;19.30;43.30;;;;;;5066832;28;19978;-66
2022/11/12 07:12:37;;;;;;;;;;;19.30;43.30;;;;;;5069559;28;19986;-66
2022/11/12 07:15:04;;;;;;;;;;;19.30;43.30;;;;;;5067571;28;19924;-66
2022/11/12 07:17:31;;;;;;;;;;;19.30;43.30;;;;;;5068113;28;19932;-66
2022/11/12 07:19:58;;;;;;;;;;;19.30;43.20;;;;;;5057730;28;19933;-67
2022/11/12 07:22:25;;;;;;;;;;;19.30;43.20;;;;;;5095305;28;19931;-67
2022/11/12 07:24:52;;;;;;;;;;;19.30;43.20;;;;;;5068377;28;19978;-66
2022/11/12 07:27:20;;;;;;;;;;;19.20;43.10;;;;;;5070224;28;19924;-67
2022/11/12 07:29:47;;;;;;;;;;;19.30;43.10;;;;;;5068715;28;19924;-66
2022/11/12 07:32:14;;;;;;;;;;;19.20;43.10;;;;;;5078263;28;19948;-66
2022/11/12 07:34:41;;;;;;;;;;;19.20;43.00;;;;;;5071636;28;19970;-66
2022/11/12 07:37:07;;;;;;;;;;;19.20;43.00;;;;;;5082045;28;19954;-66
2022/11/12 07:39:34;;;;;;;;;;;19.20;43.00;;;;;;5066308;28;19924;-67
2022/11/12 07:42:01;;;;;;;;;;;19.20;43.00;;;;;;5066905;28;19994;-66
2022/11/12 07:44:29;;;;;;;;;;;19.20;43.00;;;;;;5067334;28;19924;-66
2022/11/12 07:46:56;;;;;;;;;;;19.20;42.90;;;;;;5066589;28;19936;-66
2022/11/12 07:49:23;;;;;;;;;;;19.20;43.00;;;;;;5068095;28;19939;-66
2022/11/12 07:51:49;;;;;;;;;;;19.20;42.90;;;;;;5083552;28;19931;-66
2022/11/12 07:54:16;;;;;;;;;;;19.20;42.90;;;;;;5064656;28;19933;-66
2022/11/12 07:56:43;;;;;;;;;;;19.20;42.90;;;;;;5066444;28;19978;-67
2022/11/12 07:59:10;;;;;;;;;;;19.20;42.80;;;;;;5068608;28;19924;-66
2022/11/12 08:01:39;;;;;;;;;;;19.20;42.80;;;;;;5070305;28;19929;-67
2022/11/12 08:04:06;;;;;;;;;;;19.20;42.80;;;;;;5072911;28;19929;-67
2022/11/12 08:06:33;;;;;;;;;;;19.20;42.80;;;;;;5070266;28;19924;-67
2022/11/12 08:09:01;;;;;;;;;;;19.20;42.80;;;;;;5071672;28;19924;-67
2022/11/12 08:11:27;;;;;;;;;;;19.20;42.80;;;;;;5090735;28;19928;-67
2022/11/12 08:13:54;;;;;;;;;;;19.20;42.80;;;;;;5085811;28;19932;-68
2022/11/12 08:16:21;;;;;;;;;;;19.20;42.80;;;;;;5072033;28;19924;-67
2022/11/12 08:18:49;;;;;;;;;;;19.20;42.80;;;;;;5072911;28;19932;-68
2022/11/12 08:21:17;;;;;;;;;;;19.20;42.80;;;;;;5086598;28;20050;-67
2022/11/12 08:23:43;;;;;;;;;;;19.20;42.90;;;;;;5081085;28;19936;-67
2022/11/12 08:26:11;;;;;;;;;;;19.20;42.80;;;;;;5059758;28;19946;-66
2022/11/12 08:28:38;;;;;;;;;;;19.20;42.80;;;;;;5069588;28;19925;-67
2022/11/12 08:31:05;;;;;;;;;;;19.20;42.70;;;;;;5068813;28;20492;-68
2022/11/12 08:33:32;;;;;;;;;;;19.20;42.50;;;;;;5064769;28;19924;-67
2022/11/12 08:36:02;;;;;;;;;;;19.20;42.20;;;;;;5070310;28;19925;-67
2022/11/12 08:38:28;;;;;;;;;;;19.10;41.60;;;;;;5069889;28;19924;-67
2022/11/12 08:40:55;;;;;;;;;;;19.10;41.70;;;;;;5079594;28;20382;-67
2022/11/12 08:43:22;;;;;;;;;;;19.00;41.80;;;;;;5067866;28;19928;-68
2022/11/12 08:45:49;;;;;;;;;;;19.00;41.90;;;;;;5065692;28;19974;-67
2022/11/12 08:48:15;;;;;;;;;;;19.00;42.10;;;;;;5071316;28;20386;-66
2022/11/12 08:50:42;;;;;;;;;;;19.00;42.20;;;;;;5068327;28;20457;-67
2022/11/12 08:53:11;;;;;;;;;;;19.00;42.30;;;;;;5083427;28;19925;-68
2022/11/12 08:55:38;;;;;;;;;;;19.00;42.40;;;;;;5089047;28;19947;-68
2022/11/12 08:58:05;;;;;;;;;;;19.00;42.50;;;;;;5071700;28;19931;-68
2022/11/12 09:00:32;;;;;;;;;;;19.00;42.50;;;;;;5078621;28;19947;-66
2022/11/12 09:02:59;;;;;;;;;;;19.00;42.70;;;;;;5070395;28;19932;-68
2022/11/12 09:05:26;;;;;;;;;;;19.00;42.60;;;;;;5072962;28;20363;-68
2022/11/12 09:07:56;;;;;;;;;;;19.00;42.60;;;;;;5077085;28;19946;-66
2022/11/12 09:10:25;;;;;;;;;;;19.00;42.60;;;;;;5077628;28;19928;-68
2022/11/12 09:12:52;;;;;;;;;;;19.10;42.80;;;;;;5068834;28;19925;-66
2022/11/12 09:15:18;;;;;;;;;;;19.10;42.80;;;;;;5074292;28;19950;-67
2022/11/12 09:17:45;;;;;;;;;;;19.10;42.80;;;;;;5081693;28;19928;-67
2022/11/12 09:20:12;;;;;;;;;;;19.10;42.90;;;;;;5075229;28;19924;-67
2022/11/12 09:22:39;;;;;;;;;;;19.10;42.90;;;;;;5072892;28;19924;-67
2022/11/12 09:25:06;;;;;;;;;;;19.10;43.00;;;;;;5072630;28;19932;-68
2022/11/12 09:27:34;;;;;;;;;;;19.10;43.00;;;;;;5073515;28;19931;-70
2022/11/12 09:30:01;;;;;;;;;;;19.10;43.00;;;;;;5072201;28;19925;-68
2022/11/12 09:32:28;;;;;;;;;;;19.20;43.10;;;;;;5062523;28;19967;-67
2022/11/12 09:34:55;;;;;;;;;;;19.20;43.10;;;;;;5066604;28;20371;-67
2022/11/12 09:37:22;;;;;;;;;;;19.20;43.10;;;;;;5071714;28;19928;-67
2022/11/12 09:39:48;;;;;;;;;;;19.20;43.20;;;;;;5072013;28;19928;-67
2022/11/12 09:42:16;;;;;;;;;;;19.20;43.20;;;;;;5071232;28;20097;-67
2022/11/12 09:44:54;;;;;;;;;;;19.20;43.20;;;;;;5068572;28;19925;-65
2022/11/12 09:47:23;;;;;;;;;;;19.20;43.20;;;;;;5081701;28;19978;-65
2022/11/12 09:49:51;;;;;;;;;;;19.20;43.20;;;;;;5082402;28;19982;-69
2022/11/12 09:52:19;;;;;;;;;;;19.20;43.30;;;;;;5071305;28;19932;-65
2022/11/12 09:54:46;;;;;;;;;;;19.20;43.30;;;;;;5086518;28;19994;-68
2022/11/12 09:57:12;;;;;;;;;;;19.20;43.40;;;;;;5069529;28;20431;-68
2022/11/12 09:59:40;;;;;;;;;;;19.20;43.30;;;;;;5073457;28;19932;-66
2022/11/12 10:02:14;;;;;;;;;;;19.20;43.40;;;;;;5086728;28;20387;-66
2022/11/12 10:04:48;;;;;;;;;;;19.20;43.50;;;;;;5073390;28;19924;-65
2022/11/12 10:07:17;;;;;;;;;;;19.20;43.60;;;;;;5089432;28;19928;-67
2022/11/12 10:09:46;;;;;;;;;;;19.30;43.70;;;;;;5076350;28;19928;-68
2022/11/12 10:12:31;;;;;;;;;;;19.30;43.70;;;;;;5070752;28;19924;-68
2022/11/12 10:18:04;;;;;;;;;;;19.30;43.90;;;;;;5084267;28;19934;-67
2022/11/12 10:20:33;;;;;;;;;;;19.30;43.90;;;;;;5063843;28;19924;-67
2022/11/12 10:23:07;;;;;;;;;;;19.30;44.00;;;;;;5069083;28;19979;-66
2022/11/12 10:25:33;;;;;;;;;;;19.40;44.10;;;;;;5054932;28;19932;-66
2022/11/12 10:28:00;;;;;;;;;;;19.40;44.10;;;;;;5073092;28;19924;-67
2022/11/12 10:30:27;;;;;;;;;;;19.40;44.10;;;;;;5085188;28;19929;-65
2022/11/12 10:32:54;;;;;;;;;;;19.40;44.10;;;;;;5086874;28;19990;-66
2022/11/12 10:35:22;;;;;;;;;;;19.40;44.20;;;;;;5078406;28;19925;-66
2022/11/12 10:37:50;;;;;;;;;;;19.40;44.20;;;;;;5086563;28;19951;-66
2022/11/12 10:40:25;;;;;;;;;;;19.50;44.30;;;;;;5066252;28;19925;-66
2022/11/12 10:42:56;;;;;;;;;;;19.50;44.30;;;;;;5086783;28;19935;-65
2022/11/12 10:45:23;;;;;;;;;;;19.50;44.30;;;;;;5071679;28;19931;-67
2022/11/12 10:47:50;;;;;;;;;;;19.50;44.30;;;;;;5075094;28;19924;-66
2022/11/12 10:50:18;;;;;;;;;;;19.50;44.30;;;;;;5088425;28;19933;-67
2022/11/12 10:52:57;;;;;;;;;;;19.50;44.30;;;;;;5073327;28;19935;-67
2022/11/12 10:55:24;;;;;;;;;;;19.50;44.30;;;;;;5068271;28;19943;-67
2022/11/12 10:58:03;;;;;;;;;;;19.50;44.30;;;;;;5075934;28;19931;-67
2022/11/12 11:00:30;;;;;;;;;;;19.50;44.40;;;;;;5067963;28;19940;-67
2022/11/12 11:02:56;;;;;;;;;;;19.50;44.40;;;;;;5073011;28;20386;-67
2022/11/12 11:05:30;;;;;;;;;;;19.60;44.40;;;;;;5048789;28;19925;-67
2022/11/12 11:07:58;;;;;;;;;;;19.60;44.50;;;;;;5073121;28;19947;-67
2022/11/12 11:10:26;;;;;;;;;;;19.60;44.50;;;;;;5086730;28;19924;-68
2022/11/12 11:13:07;;;;;;;;;;;19.60;44.50;;;;;;5072842;28;19924;-67
2022/11/12 11:15:34;;;;;;;;;;;19.60;44.50;;;;;;5066968;28;19924;-65
2022/11/12 11:18:01;;;;;;;;;;;19.60;44.50;;;;;;5073457;28;19950;-69
2022/11/12 11:20:28;;;;;;;;;;;19.60;44.50;;;;;;5075328;28;19928;-65
2022/11/12 11:22:56;;;;;;;;;;;19.60;44.50;;;;;;5093349;28;19989;-66
2022/11/12 11:25:26;;;;;;;;;;;19.60;44.50;;;;;;5086731;28;19974;-66
2022/11/12 11:27:57;;;;;;;;;;;19.60;44.50;;;;;;5065361;28;19977;-66
2022/11/12 11:30:24;;;;;;;;;;;19.60;44.50;;;;;;5074595;28;19925;-66
2022/11/12 11:33:03;;;;;;;;;;;19.60;44.50;;;;;;5068535;28;19924;-67
2022/11/12 11:35:31;;;;;;;;;;;19.60;44.50;;;;;;5076956;28;19931;-67
2022/11/12 11:38:03;;;;;;;;;;;19.60;44.60;;;;;;5091247;28;19924;-68
2022/11/12 11:40:34;;;;;;;;;;;19.60;44.50;;;;;;5084879;28;19931;-66
2022/11/12 11:43:05;;;;;;;;;;;19.70;44.60;;;;;;5093266;28;19985;-65
2022/11/12 11:45:33;;;;;;;;;;;19.70;44.60;;;;;;5087781;28;19946;-65
2022/11/12 11:48:01;;;;;;;;;;;19.70;44.70;;;;;;5087618;28;19951;-66
2022/11/12 11:50:28;;;;;;;;;;;19.70;44.60;;;;;;5079919;28;20396;-66
2022/11/12 11:52:59;;;;;;;;;;;19.70;44.70;;;;;;5082326;28;19951;-65
2022/11/12 11:55:34;;;;;;;;;;;19.70;44.60;;;;;;5078343;28;19924;-68
2022/11/12 11:58:06;;;;;;;;;;;19.70;44.60;;;;;;5089878;28;19978;-65
2022/11/12 12:00:35;;;;;;;;;;;19.70;44.70;;;;;;5090741;28;19925;-66
2022/11/12 12:03:08;;;;;;;;;;;19.70;44.70;;;;;;5090023;28;19928;-66
2022/11/12 12:05:39;;;;;;;;;;;19.70;44.70;;;;;;5076750;28;19935;-66
2022/11/12 12:08:06;;;;;;;;;;;19.70;44.60;;;;;;5097288;28;20439;-66
2022/11/12 12:10:39;;;;;;;;;;;19.70;44.60;;;;;;5091187;28;19932;-66
2022/11/12 12:13:07;;;;;;;;;;;19.70;44.70;;;;;;5100204;28;19924;-66
2022/11/12 12:15:45;;;;;;;;;;;19.70;44.60;;;;;;5079816;28;19925;-67
2022/11/12 12:18:15;;;;;;;;;;;19.70;44.70;;;;;;5084159;28;19931;-66
2022/11/12 12:20:42;;;;;;;;;;;19.70;44.70;;;;;;5082930;28;19924;-67
2022/11/12 12:23:11;;;;;;;;;;;19.70;44.70;;;;;;5089861;28;19973;-66
2022/11/12 12:25:39;;;;;;;;;;;19.80;44.80;;;;;;5091527;28;20298;-66
2022/11/12 12:28:08;;;;;;;;;;;19.80;44.80;;;;;;5090163;28;19950;-69
2022/11/12 12:30:35;;;;;;;;;;;19.70;44.70;;;;;;5076935;28;19930;-64
2022/11/12 12:33:04;;;;;;;;;;;19.80;44.80;;;;;;5067654;28;19971;-66
2022/11/12 12:35:31;;;;;;;;;;;19.80;44.80;;;;;;5086807;28;19939;-64
2022/11/12 12:38:01;;;;;;;;;;;19.80;44.80;;;;;;5088769;28;19924;-66
2022/11/12 12:40:31;;;;;;;;;;;19.80;44.80;;;;;;5085459;28;19928;-65
2022/11/12 12:43:01;;;;;;;;;;;19.80;44.80;;;;;;5099141;28;20358;-65
2022/11/12 12:45:32;;;;;;;;;;;19.80;44.80;;;;;;5075333;28;19928;-65
2022/11/12 12:47:59;;;;;;;;;;;19.80;44.80;;;;;;5075179;28;19986;-65
2022/11/12 12:50:26;;;;;;;;;;;19.80;44.80;;;;;;5087261;28;19925;-69
2022/11/12 12:53:00;;;;;;;;;;;19.80;44.80;;;;;;5093702;28;19925;-67
2022/11/12 12:55:33;;;;;;;;;;;19.80;44.80;;;;;;5105494;28;19925;-67
2022/11/12 12:58:02;;;;;;;;;;;19.80;44.80;;;;;;5078546;28;20374;-67
2022/11/12 13:00:32;;;;;;;;;;;19.80;44.80;;;;;;5085503;28;19925;-66
2022/11/12 13:02:59;;;;;;;;;;;19.80;44.80;;;;;;5095731;28;19932;-66
2022/11/12 13:05:26;;;;;;;;;;;19.80;44.80;;;;;;5072035;28;19970;-66
2022/11/12 13:07:54;;;;;;;;;;;19.80;44.80;;;;;;5086476;28;19928;-68
2022/11/12 13:10:54;;;;;;;;;;;19.80;44.80;;;;;;5078191;28;19928;-67
2022/11/12 13:13:38;;;;;;;;;;;19.80;44.90;;;;;;5094783;28;19932;-67
2022/11/12 13:16:06;;;;;;;;;;;19.80;44.90;;;;;;5071106;28;20061;-67
2022/11/12 13:18:52;;;;;;;;;;;19.80;44.80;;;;;;5064479;28;19924;-66
2022/11/12 13:21:19;;;;;;;;;;;19.80;44.90;;;;;;5074211;28;19978;-67
2022/11/12 13:26:41;;;;;;;;;;;19.80;44.90;;;;;;5094362;28;19932;-67
2022/11/12 13:29:26;;;;;;;;;;;19.80;44.90;;;;;;5063987;28;19928;-67
2022/11/12 13:32:08;;;;;;;;;;;19.80;44.90;;;;;;5083810;28;19932;-66
2022/11/12 13:34:36;;;;;;;;;;;19.80;44.90;;;;;;5089984;28;19924;-67
2022/11/12 13:37:03;;;;;;;;;;;19.80;44.90;;;;;;5072251;28;19928;-67
2022/11/12 13:39:31;;;;;;;;;;;19.80;44.90;;;;;;5092622;28;19970;-66
2022/11/12 13:44:42;;;;;;;;;;;19.80;44.90;;;;;;5075613;28;19931;-66
2022/11/12 13:47:10;;;;;;;;;;;19.80;44.90;;;;;;5072292;28;19925;-66
2022/11/12 13:49:39;;;;;;;;;;;19.80;44.90;;;;;;5088860;28;20015;-66
2022/11/12 13:52:06;;;;;;;;;;;19.80;45.00;;;;;;5082228;28;19971;-66
2022/11/12 13:54:33;;;;;;;;;;;19.80;44.90;;;;;;5103141;28;19932;-66
2022/11/12 13:57:16;;;;;;;;;;;19.80;44.90;;;;;;5070952;28;19932;-66
2022/11/12 13:59:43;;;;;;;;;;;19.80;44.90;;;;;;5070517;28;19964;-67
2022/11/12 14:02:20;;;;;;;;;;;19.80;45.00;;;;;;5092934;28;19925;-66
2022/11/12 14:04:49;;;;;;;;;;;19.80;44.90;;;;;;5064233;28;20019;-68
2022/11/12 14:07:21;;;;;;;;;;;19.80;44.90;;;;;;5065476;28;19924;-67
2022/11/12 14:09:50;;;;;;;;;;;19.80;45.00;;;;;;5083415;28;19978;-66
2022/11/12 14:12:28;;;;;;;;;;;19.80;45.00;;;;;;5070464;28;19968;-67
2022/11/12 14:15:01;;;;;;;;;;;19.80;44.90;;;;;;5086211;28;19940;-67
2022/11/12 14:17:31;;;;;;;;;;;19.80;44.90;;;;;;5071470;28;19924;-68
2022/11/12 14:20:12;;;;;;;;;;;19.90;45.00;;;;;;5081105;28;19924;-67
2022/11/12 14:22:39;;;;;;;;;;;19.90;45.00;;;;;;5099050;28;19937;-67
2022/11/12 14:25:10;;;;;;;;;;;19.80;44.90;;;;;;5079867;28;19928;-67
2022/11/12 14:27:37;;;;;;;;;;;19.80;44.90;;;;;;5069816;28;19924;-67
2022/11/12 14:30:05;;;;;;;;;;;19.90;45.10;;;;;;5083035;28;19929;-68
2022/11/12 14:32:35;;;;;;;;;;;19.90;45.10;;;;;;5064425;28;19978;-68
2022/11/12 14:38:10;;;;;;;;;;;19.80;45.00;;;;;;5094926;27;19920;-67
2022/11/12 14:40:37;;;;;;;;;;;19.80;44.90;;;;;;5081412;28;19928;-67
2022/11/12 14:43:04;;;;;;;;;;;19.80;44.90;;;;;;5103966;28;20381;-66
2022/11/12 14:45:31;;;;;;;;;;;19.90;45.10;;;;;;5084861;28;19931;-65
2022/11/12 14:47:58;;;;;;;;;;;19.80;45.00;;;;;;5103252;28;19931;-66
2022/11/12 14:50:26;;;;;;;;;;;19.80;45.00;;;;;;5087609;28;19924;-66
2022/11/12 14:52:54;;;;;;;;;;;19.80;45.00;;;;;;5088716;28;19924;-67
2022/11/12 14:55:23;;;;;;;;;;;19.90;45.10;;;;;;5092514;28;19978;-66
2022/11/12 14:57:50;;;;;;;;;;;19.90;45.00;;;;;;5091488;28;19928;-66